sensor_id;sensor_type;location;lat;lon;timestamp;pressure;altitude;pressure_sealevel;temperature
17716;BMP280;50159;49.426;11.182;2022-10-31T00:01:24;98161.91;;;10.86
17716;BMP280;50159;49.426;11.182;2022-10-31T00:03:52;98168.16;;;10.83
17716;BMP280;50159;49.426;11.182;2022-10-31T00:06:19;98164.94;;;10.80
17716;BMP280;50159;49.426;11.182;2022-10-31T00:08:51;98171.94;;;10.79
17716;BMP280;50159;49.426;11.182;2022-10-31T00:11:17;98174.84;;;10.75
17716;BMP280;50159;49.426;11.182;2022-10-31T00:13:44;98181.22;;;10.71
17716;BMP280;50159;49.426;11.182;2022-10-31T00:16:23;98177.16;;;10.67
17716;BMP280;50159;49.426;11.182;2022-10-31T00:18:57;98179.06;;;10.65
17716;BMP280;50159;49.426;11.182;2022-10-31T00:21:25;98177.28;;;10.66
17716;BMP280;50159;49.426;11.182;2022-10-31T00:23:52;98171.56;;;10.61
17716;BMP280;50159;49.426;11.182;2022-10-31T00:26:19;98184.78;;;10.58
17716;BMP280;50159;49.426;11.182;2022-10-31T00:28:46;98182.28;;;10.56
17716;BMP280;50159;49.426;11.182;2022-10-31T00:31:14;98179.91;;;10.53
17716;BMP280;50159;49.426;11.182;2022-10-31T00:33:42;98176.66;;;10.50
17716;BMP280;50159;49.426;11.182;2022-10-31T00:36:17;98184.09;;;10.44
17716;BMP280;50159;49.426;11.182;2022-10-31T00:38:45;98186.91;;;10.41
17716;BMP280;50159;49.426;11.182;2022-10-31T00:41:15;98192.09;;;10.41
17716;BMP280;50159;49.426;11.182;2022-10-31T00:43:43;98183.56;;;10.39
17716;BMP280;50159;49.426;11.182;2022-10-31T00:46:11;98191.56;;;10.36
17716;BMP280;50159;49.426;11.182;2022-10-31T00:48:38;98189.09;;;10.34
17716;BMP280;50159;49.426;11.182;2022-10-31T00:51:05;98196.06;;;10.34
17716;BMP280;50159;49.426;11.182;2022-10-31T00:53:32;98195.22;;;10.33
17716;BMP280;50159;49.426;11.182;2022-10-31T00:55:59;98191.91;;;10.31
17716;BMP280;50159;49.426;11.182;2022-10-31T00:58:26;98198.16;;;10.29
17716;BMP280;50159;49.426;11.182;2022-10-31T01:00:53;98190.47;;;10.28
17716;BMP280;50159;49.426;11.182;2022-10-31T01:03:30;98188.69;;;10.28
17716;BMP280;50159;49.426;11.182;2022-10-31T01:06:06;98193.78;;;10.29
17716;BMP280;50159;49.426;11.182;2022-10-31T01:08:38;98185.16;;;10.29
17716;BMP280;50159;49.426;11.182;2022-10-31T01:11:13;98185.16;;;10.29
17716;BMP280;50159;49.426;11.182;2022-10-31T01:13:41;98187.09;;;10.26
17716;BMP280;50159;49.426;11.182;2022-10-31T01:16:14;98182.34;;;10.20
17716;BMP280;50159;49.426;11.182;2022-10-31T01:18:41;98177.38;;;10.17
17716;BMP280;50159;49.426;11.182;2022-10-31T01:21:13;98184.53;;;10.13
17716;BMP280;50159;49.426;11.182;2022-10-31T01:23:41;98187.22;;;10.12
17716;BMP280;50159;49.426;11.182;2022-10-31T01:26:17;98183.19;;;10.08
17716;BMP280;50159;49.426;11.182;2022-10-31T01:28:52;98180.91;;;10.04
17716;BMP280;50159;49.426;11.182;2022-10-31T01:31:22;98177.78;;;9.99
17716;BMP280;50159;49.426;11.182;2022-10-31T01:33:49;98176.09;;;9.98
17716;BMP280;50159;49.426;11.182;2022-10-31T01:36:29;98170.91;;;9.98
17716;BMP280;50159;49.426;11.182;2022-10-31T01:39:04;98182.84;;;10.00
17716;BMP280;50159;49.426;11.182;2022-10-31T01:41:34;98171.75;;;9.98
17716;BMP280;50159;49.426;11.182;2022-10-31T01:49:56;98165.09;;;9.82
17716;BMP280;50159;49.426;11.182;2022-10-31T01:55:16;98158.97;;;9.83
17716;BMP280;50159;49.426;11.182;2022-10-31T01:57:48;98165.47;;;9.76
17716;BMP280;50159;49.426;11.182;2022-10-31T02:00:20;98166.22;;;9.78
17716;BMP280;50159;49.426;11.182;2022-10-31T02:02:49;98161.19;;;9.75
17716;BMP280;50159;49.426;11.182;2022-10-31T02:05:21;98172.75;;;9.71
17716;BMP280;50159;49.426;11.182;2022-10-31T02:07:58;98171.09;;;9.70
17716;BMP280;50159;49.426;11.182;2022-10-31T02:10:27;98166.00;;;9.69
17716;BMP280;50159;49.426;11.182;2022-10-31T02:12:57;98166.72;;;9.71
17716;BMP280;50159;49.426;11.182;2022-10-31T02:15:25;98176.38;;;9.69
17716;BMP280;50159;49.426;11.182;2022-10-31T02:17:52;98174.41;;;9.72
17716;BMP280;50159;49.426;11.182;2022-10-31T02:20:23;98176.06;;;9.73
17716;BMP280;50159;49.426;11.182;2022-10-31T02:26:04;98170.03;;;9.73
17716;BMP280;50159;49.426;11.182;2022-10-31T02:31:46;98172.41;;;9.63
17716;BMP280;50159;49.426;11.182;2022-10-31T02:37:12;98174.00;;;9.66
17716;BMP280;50159;49.426;11.182;2022-10-31T02:42:51;98169.09;;;9.61
17716;BMP280;50159;49.426;11.182;2022-10-31T02:45:30;98172.94;;;9.56
17716;BMP280;50159;49.426;11.182;2022-10-31T02:48:05;98182.50;;;9.56
17716;BMP280;50159;49.426;11.182;2022-10-31T02:50:39;98168.78;;;9.54
17716;BMP280;50159;49.426;11.182;2022-10-31T02:53:08;98174.97;;;9.51
17716;BMP280;50159;49.426;11.182;2022-10-31T02:58:14;98168.66;;;9.43
17716;BMP280;50159;49.426;11.182;2022-10-31T03:01:33;98170.69;;;9.38
17716;BMP280;50159;49.426;11.182;2022-10-31T03:07:12;98165.63;;;9.37
17716;BMP280;50159;49.426;11.182;2022-10-31T03:12:40;98162.50;;;9.32
17716;BMP280;50159;49.426;11.182;2022-10-31T03:15:23;98167.06;;;9.28
17716;BMP280;50159;49.426;11.182;2022-10-31T03:17:56;98168.91;;;9.26
17716;BMP280;50159;49.426;11.182;2022-10-31T03:20:39;98163.19;;;9.21
17716;BMP280;50159;49.426;11.182;2022-10-31T03:23:15;98155.81;;;9.16
17716;BMP280;50159;49.426;11.182;2022-10-31T03:25:43;98168.81;;;9.16
17716;BMP280;50159;49.426;11.182;2022-10-31T03:28:14;98163.63;;;9.16
17716;BMP280;50159;49.426;11.182;2022-10-31T03:30:48;98166.38;;;9.13
17716;BMP280;50159;49.426;11.182;2022-10-31T03:33:21;98163.06;;;9.11
17716;BMP280;50159;49.426;11.182;2022-10-31T03:35:55;98158.91;;;9.08
17716;BMP280;50159;49.426;11.182;2022-10-31T03:38:24;98178.94;;;9.06
17716;BMP280;50159;49.426;11.182;2022-10-31T03:40:53;98172.91;;;9.06
17716;BMP280;50159;49.426;11.182;2022-10-31T03:43:29;98167.09;;;9.02
17716;BMP280;50159;49.426;11.182;2022-10-31T03:45:57;98178.31;;;9.03
17716;BMP280;50159;49.426;11.182;2022-10-31T03:48:25;98165.50;;;9.00
17716;BMP280;50159;49.426;11.182;2022-10-31T03:51:15;98166.53;;;8.97
17716;BMP280;50159;49.426;11.182;2022-10-31T03:54:13;98162.28;;;8.96
17716;BMP280;50159;49.426;11.182;2022-10-31T03:57:04;98158.22;;;8.93
17716;BMP280;50159;49.426;11.182;2022-10-31T03:59:38;98170.56;;;8.89
17716;BMP280;50159;49.426;11.182;2022-10-31T04:02:12;98167.06;;;8.90
17716;BMP280;50159;49.426;11.182;2022-10-31T04:04:43;98167.22;;;8.87
17716;BMP280;50159;49.426;11.182;2022-10-31T04:07:12;98162.97;;;8.86
17716;BMP280;50159;49.426;11.182;2022-10-31T04:09:44;98173.34;;;8.86
17716;BMP280;50159;49.426;11.182;2022-10-31T04:12:15;98166.50;;;8.85
17716;BMP280;50159;49.426;11.182;2022-10-31T04:14:46;98164.81;;;8.84
17716;BMP280;50159;49.426;11.182;2022-10-31T04:17:18;98169.28;;;8.82
17716;BMP280;50159;49.426;11.182;2022-10-31T04:19:46;98170.31;;;8.80
17716;BMP280;50159;49.426;11.182;2022-10-31T04:22:13;98174.00;;;8.76
17716;BMP280;50159;49.426;11.182;2022-10-31T04:24:40;98169.84;;;8.73
17716;BMP280;50159;49.426;11.182;2022-10-31T04:27:07;98172.66;;;8.71
17716;BMP280;50159;49.426;11.182;2022-10-31T04:29:34;98168.41;;;8.70
17716;BMP280;50159;49.426;11.182;2022-10-31T04:32:01;98164.88;;;8.71
17716;BMP280;50159;49.426;11.182;2022-10-31T04:34:27;98171.00;;;8.70
17716;BMP280;50159;49.426;11.182;2022-10-31T04:36:54;98171.72;;;8.72
17716;BMP280;50159;49.426;11.182;2022-10-31T04:39:21;98173.38;;;8.72
17716;BMP280;50159;49.426;11.182;2022-10-31T04:41:52;98178.47;;;8.74
17716;BMP280;50159;49.426;11.182;2022-10-31T04:44:19;98176.81;;;8.73
17716;BMP280;50159;49.426;11.182;2022-10-31T04:46:46;98177.63;;;8.73
17716;BMP280;50159;49.426;11.182;2022-10-31T04:49:13;98174.13;;;8.74
17716;BMP280;50159;49.426;11.182;2022-10-31T04:51:39;98175.78;;;8.75
17716;BMP280;50159;49.426;11.182;2022-10-31T04:54:06;98174.94;;;8.75
17716;BMP280;50159;49.426;11.182;2022-10-31T04:56:33;98173.28;;;8.74
17716;BMP280;50159;49.426;11.182;2022-10-31T04:59:00;98175.97;;;8.72
17716;BMP280;50159;49.426;11.182;2022-10-31T05:01:26;98169.97;;;8.72
17716;BMP280;50159;49.426;11.182;2022-10-31T05:03:54;98167.25;;;8.73
17716;BMP280;50159;49.426;11.182;2022-10-31T05:06:21;98169.69;;;8.76
17716;BMP280;50159;49.426;11.182;2022-10-31T05:08:48;98177.38;;;8.78
17716;BMP280;50159;49.426;11.182;2022-10-31T05:11:15;98163.47;;;8.79
17716;BMP280;50159;49.426;11.182;2022-10-31T05:13:41;98167.09;;;8.76
17716;BMP280;50159;49.426;11.182;2022-10-31T05:16:08;98172.09;;;8.79
17716;BMP280;50159;49.426;11.182;2022-10-31T05:18:35;98160.03;;;8.78
17716;BMP280;50159;49.426;11.182;2022-10-31T05:21:02;98168.81;;;8.76
17716;BMP280;50159;49.426;11.182;2022-10-31T05:23:29;98161.25;;;8.73
17716;BMP280;50159;49.426;11.182;2022-10-31T05:25:56;98162.28;;;8.71
17716;BMP280;50159;49.426;11.182;2022-10-31T05:28:22;98164.16;;;8.69
17716;BMP280;50159;49.426;11.182;2022-10-31T05:30:49;98157.28;;;8.68
17716;BMP280;50159;49.426;11.182;2022-10-31T05:33:16;98159.06;;;8.67
17716;BMP280;50159;49.426;11.182;2022-10-31T05:35:43;98159.16;;;8.66
17716;BMP280;50159;49.426;11.182;2022-10-31T05:38:09;98156.84;;;8.61
17716;BMP280;50159;49.426;11.182;2022-10-31T05:40:36;98158.78;;;8.58
17716;BMP280;50159;49.426;11.182;2022-10-31T05:43:03;98159.72;;;8.57
17716;BMP280;50159;49.426;11.182;2022-10-31T05:45:30;98151.31;;;8.53
17716;BMP280;50159;49.426;11.182;2022-10-31T05:47:59;98161.03;;;8.50
17716;BMP280;50159;49.426;11.182;2022-10-31T05:50:30;98155.09;;;8.48
17716;BMP280;50159;49.426;11.182;2022-10-31T05:53:04;98159.56;;;8.46
17716;BMP280;50159;49.426;11.182;2022-10-31T05:55:32;98164.84;;;8.45
17716;BMP280;50159;49.426;11.182;2022-10-31T05:57:58;98157.16;;;8.43
17716;BMP280;50159;49.426;11.182;2022-10-31T06:00:27;98170.22;;;8.42
17716;BMP280;50159;49.426;11.182;2022-10-31T06:03:03;98177.06;;;8.43
17716;BMP280;50159;49.426;11.182;2022-10-31T06:05:31;98166.81;;;8.41
17716;BMP280;50159;49.426;11.182;2022-10-31T06:07:58;98167.72;;;8.40
17716;BMP280;50159;49.426;11.182;2022-10-31T06:10:26;98173.84;;;8.39
17716;BMP280;50159;49.426;11.182;2022-10-31T06:12:53;98167.72;;;8.40
17716;BMP280;50159;49.426;11.182;2022-10-31T06:15:20;98167.72;;;8.40
17716;BMP280;50159;49.426;11.182;2022-10-31T06:18:05;98169.19;;;8.44
17716;BMP280;50159;49.426;11.182;2022-10-31T06:20:33;98165.47;;;8.48
17716;BMP280;50159;49.426;11.182;2022-10-31T06:23:01;98166.13;;;8.51
17716;BMP280;50159;49.426;11.182;2022-10-31T06:25:29;98167.59;;;8.55
17716;BMP280;50159;49.426;11.182;2022-10-31T06:27:56;98174.34;;;8.58
17716;BMP280;50159;49.426;11.182;2022-10-31T06:30:23;98165.63;;;8.59
17716;BMP280;50159;49.426;11.182;2022-10-31T06:32:50;98172.69;;;8.57
17716;BMP280;50159;49.426;11.182;2022-10-31T06:35:17;98166.56;;;8.58
17716;BMP280;50159;49.426;11.182;2022-10-31T06:37:52;98162.94;;;8.60
17716;BMP280;50159;49.426;11.182;2022-10-31T06:40:19;98162.69;;;8.65
17716;BMP280;50159;49.426;11.182;2022-10-31T06:42:46;98159.88;;;8.68
17716;BMP280;50159;49.426;11.182;2022-10-31T06:45:13;98163.94;;;8.72
17716;BMP280;50159;49.426;11.182;2022-10-31T06:47:40;98168.00;;;8.75
17716;BMP280;50159;49.426;11.182;2022-10-31T06:50:26;98178.72;;;8.83
17716;BMP280;50159;49.426;11.182;2022-10-31T06:52:57;98176.66;;;8.88
17716;BMP280;50159;49.426;11.182;2022-10-31T06:55:25;98175.25;;;8.96
17716;BMP280;50159;49.426;11.182;2022-10-31T06:57:58;98176.22;;;9.08
17716;BMP280;50159;49.426;11.182;2022-10-31T07:00:30;98169.31;;;9.20
17716;BMP280;50159;49.426;11.182;2022-10-31T07:03:04;98179.25;;;9.40
17716;BMP280;50159;49.426;11.182;2022-10-31T07:05:31;98175.84;;;9.76
17716;BMP280;50159;49.426;11.182;2022-10-31T07:08:01;98173.59;;;10.33
17716;BMP280;50159;49.426;11.182;2022-10-31T07:10:31;98176.94;;;11.05
17716;BMP280;50159;49.426;11.182;2022-10-31T07:13:09;98185.47;;;11.64
17716;BMP280;50159;49.426;11.182;2022-10-31T07:15:38;98168.28;;;11.95
17716;BMP280;50159;49.426;11.182;2022-10-31T07:18:08;98176.34;;;12.03
17716;BMP280;50159;49.426;11.182;2022-10-31T07:20:36;98170.31;;;12.03
17716;BMP280;50159;49.426;11.182;2022-10-31T07:23:03;98175.28;;;12.06
17716;BMP280;50159;49.426;11.182;2022-10-31T07:25:30;98175.88;;;12.09
17716;BMP280;50159;49.426;11.182;2022-10-31T07:27:57;98178.03;;;12.15
17716;BMP280;50159;49.426;11.182;2022-10-31T07:30:24;98176.25;;;12.15
17716;BMP280;50159;49.426;11.182;2022-10-31T07:32:51;98183.34;;;12.13
17716;BMP280;50159;49.426;11.182;2022-10-31T07:35:25;98181.69;;;12.12
17716;BMP280;50159;49.426;11.182;2022-10-31T07:37:52;98177.66;;;12.19
17716;BMP280;50159;49.426;11.182;2022-10-31T07:40:20;98190.25;;;12.36
17716;BMP280;50159;49.426;11.182;2022-10-31T07:42:51;98185.47;;;12.52
17716;BMP280;50159;49.426;11.182;2022-10-31T07:45:20;98177.44;;;12.65
17716;BMP280;50159;49.426;11.182;2022-10-31T07:47:52;98174.47;;;12.80
17716;BMP280;50159;49.426;11.182;2022-10-31T07:50:25;98175.28;;;12.92
17716;BMP280;50159;49.426;11.182;2022-10-31T07:53:10;98179.63;;;13.02
17716;BMP280;50159;49.426;11.182;2022-10-31T07:55:38;98180.09;;;13.18
17716;BMP280;50159;49.426;11.182;2022-10-31T07:58:10;98176.13;;;13.34
17716;BMP280;50159;49.426;11.182;2022-10-31T08:00:39;98178.81;;;13.43
17716;BMP280;50159;49.426;11.182;2022-10-31T08:03:10;98176.16;;;13.54
17716;BMP280;50159;49.426;11.182;2022-10-31T08:05:38;98176.94;;;13.65
17716;BMP280;50159;49.426;11.182;2022-10-31T08:08:05;98168.91;;;13.77
17716;BMP280;50159;49.426;11.182;2022-10-31T08:10:33;98162.44;;;13.92
17716;BMP280;50159;49.426;11.182;2022-10-31T08:13:04;98168.53;;;14.02
17716;BMP280;50159;49.426;11.182;2022-10-31T08:15:32;98167.50;;;14.13
17716;BMP280;50159;49.426;11.182;2022-10-31T08:18:00;98158.50;;;14.27
17716;BMP280;50159;49.426;11.182;2022-10-31T08:20:28;98158.41;;;14.37
17716;BMP280;50159;49.426;11.182;2022-10-31T08:23:00;98150.88;;;14.44
17716;BMP280;50159;49.426;11.182;2022-10-31T08:25:31;98166.03;;;14.50
17716;BMP280;50159;49.426;11.182;2022-10-31T08:28:05;98154.09;;;14.56
17716;BMP280;50159;49.426;11.182;2022-10-31T08:30:34;98154.81;;;14.68
17716;BMP280;50159;49.426;11.182;2022-10-31T08:33:17;98155.97;;;14.84
17716;BMP280;50159;49.426;11.182;2022-10-31T08:35:45;98145.94;;;14.98
17716;BMP280;50159;49.426;11.182;2022-10-31T08:38:12;98159.25;;;15.15
17716;BMP280;50159;49.426;11.182;2022-10-31T08:40:40;98147.25;;;15.31
17716;BMP280;50159;49.426;11.182;2022-10-31T08:43:16;98155.81;;;15.52
17716;BMP280;50159;49.426;11.182;2022-10-31T08:45:47;98152.50;;;15.68
17716;BMP280;50159;49.426;11.182;2022-10-31T08:48:16;98148.19;;;15.86
17716;BMP280;50159;49.426;11.182;2022-10-31T08:50:44;98137.88;;;16.03
17716;BMP280;50159;49.426;11.182;2022-10-31T08:53:17;98153.84;;;16.19
17716;BMP280;50159;49.426;11.182;2022-10-31T08:55:46;98133.34;;;16.32
17716;BMP280;50159;49.426;11.182;2022-10-31T08:58:17;98142.41;;;16.46
17716;BMP280;50159;49.426;11.182;2022-10-31T09:00:46;98143.16;;;16.65
17716;BMP280;50159;49.426;11.182;2022-10-31T09:03:19;98131.06;;;16.81
17716;BMP280;50159;49.426;11.182;2022-10-31T09:05:46;98138.13;;;16.98
17716;BMP280;50159;49.426;11.182;2022-10-31T09:08:14;98135.03;;;17.12
17716;BMP280;50159;49.426;11.182;2022-10-31T09:10:43;98147.50;;;17.27
17716;BMP280;50159;49.426;11.182;2022-10-31T09:13:13;98141.06;;;17.39
17716;BMP280;50159;49.426;11.182;2022-10-31T09:15:43;98127.38;;;17.52
17716;BMP280;50159;49.426;11.182;2022-10-31T09:18:12;98130.44;;;17.65
17716;BMP280;50159;49.426;11.182;2022-10-31T09:20:42;98136.16;;;17.78
17716;BMP280;50159;49.426;11.182;2022-10-31T09:23:19;98137.44;;;17.91
17716;BMP280;50159;49.426;11.182;2022-10-31T09:25:48;98134.22;;;17.97
17716;BMP280;50159;49.426;11.182;2022-10-31T09:28:20;98141.88;;;18.08
17716;BMP280;50159;49.426;11.182;2022-10-31T09:30:50;98135.06;;;18.22
17716;BMP280;50159;49.426;11.182;2022-10-31T09:33:18;98128.84;;;18.31
17716;BMP280;50159;49.426;11.182;2022-10-31T09:35:45;98132.50;;;18.38
17716;BMP280;50159;49.426;11.182;2022-10-31T09:38:17;98121.03;;;18.47
17716;BMP280;50159;49.426;11.182;2022-10-31T09:41:08;98124.56;;;18.63
17716;BMP280;50159;49.426;11.182;2022-10-31T09:43:52;98121.91;;;18.80
17716;BMP280;50159;49.426;11.182;2022-10-31T09:49:36;98123.16;;;19.17
17716;BMP280;50159;49.426;11.182;2022-10-31T09:52:28;98121.38;;;19.33
17716;BMP280;50159;49.426;11.182;2022-10-31T09:55:15;98113.00;;;19.45
17716;BMP280;50159;49.426;11.182;2022-10-31T09:57:44;98110.34;;;19.53
17716;BMP280;50159;49.426;11.182;2022-10-31T10:00:19;98107.44;;;19.72
17716;BMP280;50159;49.426;11.182;2022-10-31T10:02:59;98111.53;;;19.90
17716;BMP280;50159;49.426;11.182;2022-10-31T10:05:38;98105.44;;;20.05
17716;BMP280;50159;49.426;11.182;2022-10-31T10:08:25;98105.06;;;20.16
17716;BMP280;50159;49.426;11.182;2022-10-31T10:14:21;98091.34;;;20.43
17716;BMP280;50159;49.426;11.182;2022-10-31T10:17:20;98088.94;;;20.64
17716;BMP280;50159;49.426;11.182;2022-10-31T10:20:24;98080.63;;;20.83
17716;BMP280;50159;49.426;11.182;2022-10-31T10:23:41;98085.97;;;21.05
17716;BMP280;50159;49.426;11.182;2022-10-31T10:28:44;98067.63;;;21.33
17716;BMP280;50159;49.426;11.182;2022-10-31T10:31:17;98067.69;;;21.47
17716;BMP280;50159;49.426;11.182;2022-10-31T10:34:11;98066.09;;;21.60
17716;BMP280;50159;49.426;11.182;2022-10-31T10:36:49;98060.13;;;21.80
17716;BMP280;50159;49.426;11.182;2022-10-31T10:39:24;98049.56;;;21.95
17716;BMP280;50159;49.426;11.182;2022-10-31T10:41:51;98047.34;;;22.06
17716;BMP280;50159;49.426;11.182;2022-10-31T10:44:48;98051.53;;;22.15
17716;BMP280;50159;49.426;11.182;2022-10-31T10:47:42;98042.59;;;22.30
17716;BMP280;50159;49.426;11.182;2022-10-31T10:50:20;98042.78;;;22.43
17716;BMP280;50159;49.426;11.182;2022-10-31T10:52:58;98044.78;;;22.55
17716;BMP280;50159;49.426;11.182;2022-10-31T10:55:44;98035.50;;;22.65
17716;BMP280;50159;49.426;11.182;2022-10-31T10:58:17;98024.84;;;22.73
17716;BMP280;50159;49.426;11.182;2022-10-31T11:00:46;98031.59;;;22.75
17716;BMP280;50159;49.426;11.182;2022-10-31T11:03:16;98025.94;;;22.78
17716;BMP280;50159;49.426;11.182;2022-10-31T11:05:55;98028.22;;;22.81
17716;BMP280;50159;49.426;11.182;2022-10-31T11:08:35;98025.09;;;22.78
17716;BMP280;50159;49.426;11.182;2022-10-31T11:11:11;98022.28;;;22.79
17716;BMP280;50159;49.426;11.182;2022-10-31T11:13:44;98017.06;;;22.86
17716;BMP280;50159;49.426;11.182;2022-10-31T11:16:28;98016.66;;;22.89
17716;BMP280;50159;49.426;11.182;2022-10-31T11:19:13;98002.19;;;22.91
17716;BMP280;50159;49.426;11.182;2022-10-31T11:21:43;97997.19;;;22.96
17716;BMP280;50159;49.426;11.182;2022-10-31T11:24:24;97996.41;;;23.02
17716;BMP280;50159;49.426;11.182;2022-10-31T11:27:13;97994.38;;;23.04
17716;BMP280;50159;49.426;11.182;2022-10-31T11:29:40;97989.06;;;23.04
17716;BMP280;50159;49.426;11.182;2022-10-31T11:32:21;97980.50;;;23.02
17716;BMP280;50159;49.426;11.182;2022-10-31T11:34:57;97983.53;;;22.99
17716;BMP280;50159;49.426;11.182;2022-10-31T11:37:28;97983.34;;;23.00
17716;BMP280;50159;49.426;11.182;2022-10-31T11:40:00;97975.19;;;23.02
17716;BMP280;50159;49.426;11.182;2022-10-31T11:42:38;97975.69;;;23.12
17716;BMP280;50159;49.426;11.182;2022-10-31T11:45:31;97964.78;;;23.21
17716;BMP280;50159;49.426;11.182;2022-10-31T11:48:02;97956.84;;;23.27
17716;BMP280;50159;49.426;11.182;2022-10-31T11:50:39;97967.88;;;23.24
17716;BMP280;50159;49.426;11.182;2022-10-31T11:53:17;97955.41;;;23.25
17716;BMP280;50159;49.426;11.182;2022-10-31T11:55:46;97949.66;;;23.21
17716;BMP280;50159;49.426;11.182;2022-10-31T11:58:25;97949.09;;;23.26
17716;BMP280;50159;49.426;11.182;2022-10-31T12:00:55;97948.53;;;23.30
17716;BMP280;50159;49.426;11.182;2022-10-31T12:06:14;97937.34;;;23.55
17716;BMP280;50159;49.426;11.182;2022-10-31T12:08:44;97932.94;;;23.68
17716;BMP280;50159;49.426;11.182;2022-10-31T12:11:46;97924.66;;;23.84
17716;BMP280;50159;49.426;11.182;2022-10-31T12:21:48;97918.78;;;24.22
17716;BMP280;50159;49.426;11.182;2022-10-31T12:24:57;97911.16;;;24.12
17716;BMP280;50159;49.426;11.182;2022-10-31T12:30:14;97904.13;;;23.99
17716;BMP280;50159;49.426;11.182;2022-10-31T12:36:15;97908.34;;;24.20
17716;BMP280;50159;49.426;11.182;2022-10-31T12:54:09;97883.03;;;24.83
17716;BMP280;50159;49.426;11.182;2022-10-31T12:59:30;97868.91;;;24.89
17716;BMP280;50159;49.426;11.182;2022-10-31T13:02:26;97869.72;;;24.83
17716;BMP280;50159;49.426;11.182;2022-10-31T13:05:19;97860.88;;;24.76
17716;BMP280;50159;49.426;11.182;2022-10-31T13:08:21;97863.88;;;24.54
17716;BMP280;50159;49.426;11.182;2022-10-31T13:11:12;97857.47;;;24.29
17716;BMP280;50159;49.426;11.182;2022-10-31T13:13:55;97855.66;;;23.97
17716;BMP280;50159;49.426;11.182;2022-10-31T13:16:30;97854.50;;;23.72
17716;BMP280;50159;49.426;11.182;2022-10-31T13:19:28;97846.56;;;23.45
17716;BMP280;50159;49.426;11.182;2022-10-31T13:22:17;97842.28;;;23.24
17716;BMP280;50159;49.426;11.182;2022-10-31T13:25:09;97838.22;;;23.01
17716;BMP280;50159;49.426;11.182;2022-10-31T13:27:56;97835.78;;;22.79
17716;BMP280;50159;49.426;11.182;2022-10-31T13:30:33;97833.16;;;22.65
17716;BMP280;50159;49.426;11.182;2022-10-31T13:33:16;97825.47;;;22.49
17716;BMP280;50159;49.426;11.182;2022-10-31T13:35:49;97819.84;;;22.38
17716;BMP280;50159;49.426;11.182;2022-10-31T13:41:47;97826.56;;;22.20
17716;BMP280;50159;49.426;11.182;2022-10-31T13:44:18;97817.81;;;22.19
17716;BMP280;50159;49.426;11.182;2022-10-31T13:46:47;97818.50;;;22.27
17716;BMP280;50159;49.426;11.182;2022-10-31T13:49:40;97815.19;;;22.60
17716;BMP280;50159;49.426;11.182;2022-10-31T13:57:27;97812.31;;;26.75
17716;BMP280;50159;49.426;11.182;2022-10-31T14:02:55;97803.75;;;29.64
17716;BMP280;50159;49.426;11.182;2022-10-31T14:05:30;97792.03;;;29.02
17716;BMP280;50159;49.426;11.182;2022-10-31T14:08:01;97799.84;;;28.17
17716;BMP280;50159;49.426;11.182;2022-10-31T14:10:32;97797.50;;;27.50
17716;BMP280;50159;49.426;11.182;2022-10-31T14:15:57;97774.84;;;25.71
17716;BMP280;50159;49.426;11.182;2022-10-31T14:18:39;97779.84;;;24.85
17716;BMP280;50159;49.426;11.182;2022-10-31T14:23:52;97780.84;;;23.54
17716;BMP280;50159;49.426;11.182;2022-10-31T14:28:56;97771.31;;;22.58
17716;BMP280;50159;49.426;11.182;2022-10-31T14:31:39;97773.97;;;22.17
17716;BMP280;50159;49.426;11.182;2022-10-31T14:34:33;97763.34;;;21.82
17716;BMP280;50159;49.426;11.182;2022-10-31T14:37:42;97756.81;;;21.50
17716;BMP280;50159;49.426;11.182;2022-10-31T14:46:22;97766.97;;;20.82
17716;BMP280;50159;49.426;11.182;2022-10-31T14:51:58;97748.75;;;20.50
17716;BMP280;50159;49.426;11.182;2022-10-31T14:54:32;97751.31;;;20.36
17716;BMP280;50159;49.426;11.182;2022-10-31T14:57:08;97744.16;;;20.22
17716;BMP280;50159;49.426;11.182;2022-10-31T14:59:44;97741.94;;;20.12
17716;BMP280;50159;49.426;11.182;2022-10-31T15:02:37;97742.53;;;19.99
17716;BMP280;50159;49.426;11.182;2022-10-31T15:05:11;97737.63;;;19.89
17716;BMP280;50159;49.426;11.182;2022-10-31T15:07:51;97741.66;;;19.77
17716;BMP280;50159;49.426;11.182;2022-10-31T15:10:45;97730.84;;;19.64
17716;BMP280;50159;49.426;11.182;2022-10-31T15:13:21;97727.75;;;19.53
17716;BMP280;50159;49.426;11.182;2022-10-31T15:15:52;97735.56;;;19.39
17716;BMP280;50159;49.426;11.182;2022-10-31T15:18:25;97733.31;;;19.28
17716;BMP280;50159;49.426;11.182;2022-10-31T15:20:56;97727.75;;;19.15
17716;BMP280;50159;49.426;11.182;2022-10-31T15:23:28;97727.63;;;19.01
17716;BMP280;50159;49.426;11.182;2022-10-31T15:26:04;97726.69;;;18.86
17716;BMP280;50159;49.426;11.182;2022-10-31T15:28:32;97726.38;;;18.74
17716;BMP280;50159;49.426;11.182;2022-10-31T15:31:01;97723.78;;;18.66
17716;BMP280;50159;49.426;11.182;2022-10-31T15:33:38;97722.78;;;18.59
17716;BMP280;50159;49.426;11.182;2022-10-31T15:36:25;97726.41;;;18.50
17716;BMP280;50159;49.426;11.182;2022-10-31T15:38:57;97710.94;;;18.39
17716;BMP280;50159;49.426;11.182;2022-10-31T15:44:31;97712.13;;;18.21
17716;BMP280;50159;49.426;11.182;2022-10-31T15:47:20;97717.53;;;18.12
17716;BMP280;50159;49.426;11.182;2022-10-31T15:49:56;97719.38;;;18.04
17716;BMP280;50159;49.426;11.182;2022-10-31T15:52:32;97712.44;;;17.95
17716;BMP280;50159;49.426;11.182;2022-10-31T15:57:42;97718.47;;;17.80
17716;BMP280;50159;49.426;11.182;2022-10-31T16:00:36;97721.59;;;17.68
17716;BMP280;50159;49.426;11.182;2022-10-31T16:03:32;97709.72;;;17.56
17716;BMP280;50159;49.426;11.182;2022-10-31T16:06:03;97708.19;;;17.46
17716;BMP280;50159;49.426;11.182;2022-10-31T16:16:19;97706.59;;;17.12
17716;BMP280;50159;49.426;11.182;2022-10-31T16:19:15;97707.56;;;17.03
17716;BMP280;50159;49.426;11.182;2022-10-31T16:21:43;97702.91;;;16.97
17716;BMP280;50159;49.426;11.182;2022-10-31T16:24:28;97707.44;;;16.87
17716;BMP280;50159;49.426;11.182;2022-10-31T16:27:17;97711.69;;;16.81
17716;BMP280;50159;49.426;11.182;2022-10-31T16:29:46;97723.78;;;16.74
17716;BMP280;50159;49.426;11.182;2022-10-31T16:32:27;97722.78;;;16.67
17716;BMP280;50159;49.426;11.182;2022-10-31T16:35:16;97729.13;;;16.57